createdAt,value
2022-09-23T00:04:37.681Z,8.20
2022-09-23T00:09:37.601Z,7.60
2022-09-23T00:14:38.162Z,7.50
2022-09-23T00:19:39.109Z,7.90
2022-09-23T00:24:37.443Z,7.70
2022-09-23T00:29:37.609Z,7.00
2022-09-23T00:34:37.570Z,7.60
2022-09-23T00:39:37.396Z,7.60
2022-09-23T00:44:43.429Z,7.10
2022-09-23T00:49:37.908Z,7.30
2022-09-23T00:54:38.023Z,7.40
2022-09-23T00:59:38.107Z,7.20
2022-09-23T01:04:38.999Z,7.20
2022-09-23T01:09:37.424Z,7.50
2022-09-23T01:14:48.904Z,7.70
2022-09-23T01:19:57.388Z,8.00
2022-09-23T01:24:45.928Z,7.60
2022-09-23T01:29:57.255Z,7.50
2022-09-23T01:34:48.537Z,7.50
2022-09-23T01:39:43.279Z,6.80
2022-09-23T01:44:46.219Z,8.30
2022-09-23T01:49:45.450Z,7.50
2022-09-23T01:54:42.863Z,7.60
2022-09-23T01:59:40.107Z,7.70
2022-09-23T02:09:43.645Z,7.10
2022-09-23T02:14:42.790Z,7.50
2022-09-23T02:19:44.206Z,6.30
2022-09-23T02:24:39.004Z,7.20
2022-09-23T02:29:48.735Z,7.40
2022-09-23T02:34:44.108Z,7.10
2022-09-23T02:39:49.041Z,6.80
2022-09-23T02:44:37.965Z,7.40
2022-09-23T02:49:37.338Z,7.60
2022-09-23T02:54:38.312Z,8.10
2022-09-23T02:59:37.643Z,7.20
2022-09-23T03:04:46.291Z,6.90
2022-09-23T03:09:46.004Z,7.60
2022-09-23T03:14:44.047Z,7.00
2022-09-23T03:19:43.615Z,7.50
2022-09-23T03:24:39.924Z,8.00
2022-09-23T03:29:37.382Z,7.80
2022-09-23T03:33:44.594Z,7.90
2022-09-23T03:34:42.063Z,7.90
2022-09-23T03:39:40.711Z,9.10
2022-09-23T03:44:42.501Z,7.70
2022-09-23T03:49:38.844Z,8.10
2022-09-23T03:54:37.291Z,8.90
2022-09-23T03:59:38.520Z,9.00
2022-09-23T04:04:39.226Z,8.80
2022-09-23T04:09:37.755Z,9.10
2022-09-23T04:14:38.140Z,8.80
2022-09-23T04:19:37.886Z,8.40
2022-09-23T04:24:37.311Z,8.30
2022-09-23T04:29:37.353Z,8.30
2022-09-23T04:34:37.299Z,7.50
2022-09-23T04:39:37.288Z,8.50
2022-09-23T04:44:37.967Z,7.70
2022-09-23T04:49:37.747Z,7.60
2022-09-23T04:54:37.316Z,8.50
2022-09-23T04:59:37.838Z,8.50
2022-09-23T05:04:37.301Z,7.90
2022-09-23T05:09:37.785Z,8.20
2022-09-23T05:14:37.904Z,8.30
2022-09-23T05:19:37.293Z,8.80
2022-09-23T05:24:37.290Z,8.10
2022-09-23T05:29:38.223Z,7.90
2022-09-23T05:34:37.771Z,8.10
2022-09-23T05:39:37.472Z,7.20
2022-09-23T05:44:38.320Z,7.40
2022-09-23T05:49:55.638Z,6.90
2022-09-23T05:54:37.523Z,7.80
2022-09-23T05:59:37.341Z,7.50
2022-09-23T06:04:37.265Z,7.70
2022-09-23T06:09:37.635Z,7.00
2022-09-23T06:14:37.421Z,7.40
2022-09-23T06:19:37.504Z,7.40
2022-09-23T06:24:37.546Z,7.90
2022-09-23T06:29:38.114Z,6.70
2022-09-23T06:34:45.467Z,6.70
2022-09-23T06:39:37.342Z,7.30
2022-09-23T06:44:37.298Z,6.90
2022-09-23T06:49:37.396Z,6.20
2022-09-23T06:54:37.244Z,5.50
2022-09-23T06:59:37.434Z,5.50
2022-09-23T07:04:37.188Z,15.50
2022-09-23T07:09:37.640Z,5.90
2022-09-23T07:10:52.004Z,5.10
2022-09-23T07:14:37.183Z,5.10
2022-09-23T07:19:37.324Z,4.70
2022-09-23T07:24:37.517Z,4.00
2022-09-23T07:29:46.402Z,4.30
2022-09-23T07:34:37.500Z,4.00
2022-09-23T07:39:38.764Z,3.60
2022-09-23T07:44:37.212Z,3.30
2022-09-23T07:49:37.463Z,2.80
2022-09-23T07:54:37.338Z,2.50
2022-09-23T07:59:37.178Z,3.20
2022-09-23T08:04:37.198Z,3.40
2022-09-23T08:09:40.510Z,3.40
2022-09-23T08:14:37.542Z,2.30
2022-09-23T08:19:37.217Z,1.90
2022-09-23T08:24:37.558Z,1.70
2022-09-23T08:29:37.247Z,1.70
2022-09-23T08:34:37.595Z,1.30
2022-09-23T08:39:37.698Z,0.80
2022-09-23T08:44:44.698Z,1.20
2022-09-23T08:49:42.439Z,1.20
2022-09-23T08:54:37.560Z,1.40
2022-09-23T08:59:41.884Z,1.40
2022-09-23T09:04:41.934Z,2.00
2022-09-23T09:09:42.925Z,1.80
2022-09-23T09:14:47.962Z,1.60
2022-09-23T09:19:52.432Z,1.70
2022-09-23T09:24:38.505Z,2.00
2022-09-23T09:29:40.306Z,1.10
2022-09-23T09:34:40.505Z,1.00
2022-09-23T09:39:37.634Z,0.80
2022-09-23T09:44:41.440Z,0.60
2022-09-23T09:49:44.502Z,0.70
2022-09-23T09:54:38.187Z,0.90
2022-09-23T09:59:43.107Z,6.80
2022-09-23T10:04:37.733Z,0.60
2022-09-23T10:09:39.258Z,1.40
2022-09-23T10:14:37.179Z,0.70
2022-09-23T10:19:42.875Z,0.80
2022-09-23T10:24:41.021Z,0.70
2022-09-23T10:29:39.310Z,0.90
2022-09-23T10:34:42.860Z,1.00
2022-09-23T10:39:47.691Z,0.90
2022-09-23T10:44:55.966Z,0.80
2022-09-23T10:49:54.288Z,4.70
2022-09-23T10:54:51.768Z,0.80
2022-09-23T10:59:49.374Z,1.20
2022-09-23T11:04:54.306Z,1.50
2022-09-23T11:09:49.342Z,0.80
2022-09-23T11:14:50.506Z,1.00
2022-09-23T11:19:56.907Z,1.40
2022-09-23T11:24:52.096Z,1.40
2022-09-23T11:29:52.247Z,1.20
2022-09-23T11:34:56.832Z,1.10
2022-09-23T11:39:44.844Z,1.10
2022-09-23T11:44:41.095Z,0.90
2022-09-23T11:49:41.475Z,0.90
2022-09-23T11:54:43.403Z,1.60
2022-09-23T11:59:42.979Z,4.20
2022-09-23T12:04:48.311Z,1.00
2022-09-23T12:09:58.194Z,1.10
2022-09-23T12:14:50.857Z,0.80
2022-09-23T12:19:50.736Z,1.00
2022-09-23T12:24:45.318Z,3.10
2022-09-23T12:29:39.929Z,0.60
2022-09-23T12:34:51.007Z,0.70
2022-09-23T12:39:38.032Z,0.70
2022-09-23T12:44:40.806Z,0.80
2022-09-23T12:49:37.209Z,0.90
2022-09-23T12:54:38.266Z,0.80
2022-09-23T12:59:56.181Z,0.90
2022-09-23T13:04:53.859Z,1.10
2022-09-23T13:09:41.915Z,0.80
2022-09-23T13:14:40.002Z,1.00
2022-09-23T13:19:45.281Z,0.80
2022-09-23T13:24:40.239Z,1.00
2022-09-23T13:29:43.198Z,1.50
2022-09-23T13:34:37.953Z,1.10
2022-09-23T13:39:37.016Z,1.10
2022-09-23T13:44:39.874Z,1.00
2022-09-23T13:49:37.455Z,0.90
2022-09-23T13:54:48.077Z,0.90
2022-09-23T13:59:40.835Z,0.90
2022-09-23T14:04:37.714Z,0.80
2022-09-23T14:09:41.937Z,1.10
2022-09-23T14:14:40.208Z,0.90
2022-09-23T14:19:37.063Z,0.90
2022-09-23T14:24:37.730Z,0.80
2022-09-23T14:29:39.363Z,1.00
2022-09-23T14:34:41.133Z,1.30
2022-09-23T14:39:37.080Z,1.10
2022-09-23T14:44:37.266Z,1.10
2022-09-23T14:49:46.923Z,1.10
2022-09-23T14:54:43.016Z,1.20
2022-09-23T14:59:36.988Z,1.20
2022-09-23T15:04:37.073Z,1.10
2022-09-23T15:09:39.792Z,1.70
2022-09-23T15:14:41.103Z,1.50
2022-09-23T15:19:37.098Z,1.30
2022-09-23T15:24:41.299Z,1.20
2022-09-23T15:29:37.849Z,1.20
2022-09-23T15:34:37.007Z,1.10
2022-09-23T15:39:37.065Z,1.30
2022-09-23T15:44:37.015Z,1.30
2022-09-23T15:49:38.142Z,1.70
2022-09-23T15:54:36.960Z,1.60
2022-09-23T15:59:37.174Z,1.60
2022-09-23T16:04:37.337Z,1.60
2022-09-23T16:09:36.935Z,1.50
2022-09-23T16:14:36.920Z,1.20
2022-09-23T16:19:37.093Z,1.40
2022-09-23T16:24:36.930Z,1.70
2022-09-23T16:29:36.916Z,1.50
2022-09-23T16:34:37.038Z,1.40
2022-09-23T16:39:36.936Z,1.80
2022-09-23T16:44:40.304Z,1.80
2022-09-23T16:49:36.981Z,1.80
2022-09-23T16:54:37.181Z,2.00
2022-09-23T16:59:46.746Z,2.40
2022-09-23T17:04:37.701Z,2.10
2022-09-23T17:09:38.167Z,2.60
2022-09-23T17:14:36.880Z,2.60
2022-09-23T17:19:37.162Z,2.70
2022-09-23T17:24:36.891Z,3.10
2022-09-23T17:29:36.931Z,16.00
2022-09-23T17:34:37.255Z,15.00
2022-09-23T17:39:37.124Z,5.90
2022-09-23T17:44:37.340Z,3.60
2022-09-23T17:49:37.020Z,3.50
2022-09-23T17:54:36.948Z,4.50
2022-09-23T17:59:37.081Z,3.80
2022-09-23T18:04:37.025Z,4.30
2022-09-23T18:09:36.943Z,3.30
2022-09-23T18:14:36.990Z,9.00
2022-09-23T18:19:37.016Z,3.90
2022-09-23T18:24:40.091Z,4.20
2022-09-23T18:29:37.135Z,4.30
2022-09-23T18:34:37.207Z,4.60
2022-09-23T18:39:37.347Z,4.00
2022-09-23T18:44:37.066Z,4.50
2022-09-23T18:49:46.778Z,4.10
2022-09-23T18:54:36.851Z,3.60
2022-09-23T18:59:36.877Z,4.00
2022-09-23T19:04:36.869Z,3.70
2022-09-23T19:09:36.910Z,3.70
2022-09-23T19:14:37.062Z,4.00
2022-09-23T19:19:36.877Z,4.60
2022-09-23T19:24:37.339Z,3.70
2022-09-23T19:29:38.174Z,4.00
2022-09-23T19:34:36.902Z,4.30
2022-09-23T19:39:39.627Z,4.40
2022-09-23T19:44:36.806Z,4.40
2022-09-23T19:49:36.934Z,3.80
2022-09-23T19:54:37.363Z,3.90
2022-09-23T19:59:38.341Z,3.90
2022-09-23T20:04:36.934Z,3.70
2022-09-23T20:14:36.903Z,5.20
2022-09-23T20:19:36.890Z,3.80
2022-09-23T20:24:36.802Z,4.00
2022-09-23T20:29:37.108Z,3.70
2022-09-23T20:34:36.993Z,4.10
2022-09-23T20:39:36.746Z,3.10
2022-09-23T20:44:36.798Z,3.10
2022-09-23T20:49:36.893Z,3.80
2022-09-23T20:54:37.865Z,3.90
2022-09-23T20:59:38.019Z,3.60
2022-09-23T21:04:36.833Z,3.80
2022-09-23T21:09:36.874Z,3.90
2022-09-23T21:14:36.715Z,4.00
2022-09-23T21:16:47.789Z,4.00
2022-09-23T21:19:37.014Z,4.00
2022-09-23T21:23:40.380Z,4.90
2022-09-23T21:25:25.071Z,4.90
2022-09-23T21:29:38.303Z,5.00
2022-09-23T21:33:31.987Z,4.30
2022-09-23T21:34:36.703Z,4.30
2022-09-23T21:39:36.695Z,4.40
2022-09-23T21:44:36.749Z,4.20
2022-09-23T21:47:53.369Z,3.60
2022-09-23T21:49:36.730Z,3.60
2022-09-23T21:52:21.937Z,3.40
2022-09-23T21:54:36.675Z,3.40
2022-09-23T21:54:45.906Z,3.40
2022-09-23T21:59:36.865Z,4.00
2022-09-23T22:04:36.763Z,3.40
2022-09-23T22:09:37.305Z,4.40
2022-09-23T22:14:37.925Z,4.20
2022-09-23T22:19:44.335Z,3.90
2022-09-23T22:24:36.677Z,4.50
2022-09-23T22:29:46.755Z,7.20
2022-09-23T22:34:30.949Z,7.00
2022-09-23T22:34:49.544Z,7.00
2022-09-23T22:39:36.970Z,8.60
2022-09-23T22:44:24.672Z,8.40
2022-09-23T22:44:36.574Z,8.40
2022-09-23T22:49:36.713Z,9.00
2022-09-23T22:54:36.986Z,11.00
2022-09-23T22:56:19.549Z,11.50
2022-09-23T22:59:37.025Z,11.50
2022-09-23T23:14:37.326Z,9.20
2022-09-23T23:19:37.127Z,9.30
2022-09-23T23:24:36.859Z,8.80
2022-09-23T23:29:36.829Z,7.90
2022-09-23T23:33:37.325Z,8.00
2022-09-23T23:34:37.040Z,8.00
2022-09-23T23:39:36.790Z,7.90
2022-09-23T23:44:37.226Z,7.50
2022-09-23T23:49:36.651Z,7.10
2022-09-23T23:54:36.846Z,6.50
2022-09-23T23:59:36.745Z,6.80
